Time;durP1;ratioP1;P1;durP2;ratioP2;P2;SDS_P1;SDS_P2;PMS_P1;PMS_P2;Temp;Humidity;BMP_temperature;BMP_pressure;BME280_temperature;BME280_humidity;BME280_pressure;Samples;Min_cycle;Max_cycle;Signal;HPM_P1;HPM_P2
2022/02/05 00:01:51;;;;;;;0.60;0.60;;;;;;;3.80;81.46;98996.22;4915396;29;20036;-71
2022/02/05 00:04:17;;;;;;;0.60;0.60;;;;;;;3.59;81.99;99006.19;4905964;29;20027;-71
2022/02/05 00:06:46;;;;;;;1.08;0.77;;;;;;;3.54;81.32;99012.97;4915902;29;20024;-71
2022/02/05 00:12:01;;;;;;;0.50;0.50;;;;;;;3.65;81.38;99026.78;4915834;29;20462;-72
2022/02/05 00:14:40;;;;;;;0.80;0.80;;;;;;;3.74;81.91;99028.59;4915866;29;20039;-72
2022/02/05 00:33:03;;;;;;;0.60;0.60;;;;;;;3.74;81.41;99042.28;4915981;29;20127;-71
2022/02/05 00:41:35;;;;;;;0.55;0.55;;;;;;;3.51;82.67;99069.25;4916088;29;20032;-71
2022/02/05 00:44:03;;;;;;;1.38;0.75;;;;;;;3.53;82.63;99077.81;4915959;29;20024;-72
2022/02/05 00:46:36;;;;;;;0.60;0.60;;;;;;;3.54;81.96;99085.56;4915595;29;20028;-71
2022/02/05 00:49:02;;;;;;;0.55;0.55;;;;;;;3.72;81.80;99092.63;4915748;29;20036;-71
2022/02/05 00:51:36;;;;;;;0.50;0.50;;;;;;;3.81;83.40;99094.47;4915562;29;20042;-71
2022/02/05 00:54:12;;;;;;;0.70;0.70;;;;;;;3.84;82.53;99097.94;4915537;29;20278;-71
2022/02/05 00:59:23;;;;;;;0.52;0.52;;;;;;;3.97;80.84;99113.50;4886126;29;20496;-71
2022/02/05 08:00:22;;;;;;;0.60;0.60;;;;;;;4.01;76.24;99523.78;5925093;23;20014;-77
2022/02/05 08:02:47;;;;;;;7.93;3.75;;;;;;;4.23;73.95;99525.03;4938761;29;20050;-77
2022/02/05 08:05:13;;;;;;;0.85;0.85;;;;;;;4.30;72.87;99526.00;4946362;29;20030;-77
2022/02/05 08:07:39;;;;;;;1.30;1.10;;;;;;;4.34;71.46;99520.09;4954119;29;20078;-77
2022/02/05 08:10:07;;;;;;;1.85;1.20;;;;;;;4.35;71.52;99526.97;4954274;29;20535;-77
2022/02/05 08:12:35;;;;;;;0.60;0.60;;;;;;;4.45;74.61;99520.31;4935026;29;20110;-77
2022/02/05 08:15:01;;;;;;;3.30;1.55;;;;;;;3.95;72.79;99527.88;4958778;23;20142;-73
2022/02/05 08:17:29;;;;;;;0.98;0.98;;;;;;;4.60;71.84;99528.31;4934970;29;20107;-74
2022/02/05 08:19:55;;;;;;;0.80;0.80;;;;;;;4.60;71.30;99536.88;4935157;29;20023;-74
2022/02/05 08:22:21;;;;;;;0.75;0.75;;;;;;;4.65;71.12;99524.13;4934943;29;20633;-73
2022/02/05 08:24:48;;;;;;;0.68;0.68;;;;;;;4.73;70.48;99527.66;4920254;29;20043;-74
2022/02/05 08:27:13;;;;;;;0.77;0.77;;;;;;;4.89;70.55;99532.25;4916094;29;20024;-74
2022/02/05 08:29:46;;;;;;;0.70;0.70;;;;;;;5.26;68.62;99530.25;4915905;29;20103;-74
2022/02/05 08:32:12;;;;;;;0.65;0.65;;;;;;;6.53;67.91;99528.50;4915765;29;20106;-73
2022/02/05 08:34:37;;;;;;;15.00;1.10;;;;;;;7.71;61.93;99518.25;4925743;29;20103;-74
2022/02/05 08:37:03;;;;;;;0.63;0.60;;;;;;;7.32;60.24;99524.03;4934636;29;20034;-74
2022/02/05 08:39:28;;;;;;;0.70;0.70;;;;;;;7.45;59.88;99525.84;4934718;29;20037;-73
2022/02/05 08:41:53;;;;;;;0.70;0.70;;;;;;;9.44;54.33;99510.88;4935052;29;20027;-73
2022/02/05 08:44:19;;;;;;;0.60;0.60;;;;;;;9.82;51.44;99528.03;4934604;29;20567;-73
2022/02/05 08:46:46;;;;;;;0.93;0.47;;;;;;;9.14;55.54;99526.44;4934662;29;20020;-74
2022/02/05 08:49:11;;;;;;;0.60;0.60;;;;;;;9.68;52.65;99537.56;4934854;29;20031;-73
2022/02/05 08:51:37;;;;;;;2.75;0.57;;;;;;;8.81;54.21;99538.47;4934833;29;20569;-74
2022/02/05 08:54:02;;;;;;;0.50;0.50;;;;;;;7.38;56.95;99549.84;4934462;29;20032;-74
2022/02/05 08:56:28;;;;;;;0.77;0.77;;;;;;;7.36;58.97;99551.56;4934413;29;20086;-73
2022/02/05 08:58:55;;;;;;;0.80;0.80;;;;;;;9.11;53.93;99547.09;4934609;29;20036;-73
2022/02/05 09:01:31;;;;;;;0.60;0.60;;;;;;;9.83;51.32;99550.47;4934788;29;20024;-74
2022/02/05 09:04:02;;;;;;;2.20;0.65;;;;;;;10.04;50.11;99544.34;4923859;29;20020;-74
2022/02/05 09:06:33;;;;;;;0.50;0.50;;;;;;;9.56;50.62;99547.94;4932158;29;20507;-74
2022/02/05 09:14:39;;;;;;;0.50;0.50;;;;;;;8.82;52.69;99557.41;4934384;29;20043;-74
2022/02/05 09:17:05;;;;;;;1.00;1.00;;;;;;;8.67;53.59;99566.00;4934263;29;20072;-74
2022/02/05 09:19:33;;;;;;;0.50;0.50;;;;;;;7.78;55.72;99565.56;4934512;29;20426;-74
2022/02/05 09:22:00;;;;;;;0.40;0.40;;;;;;;6.67;58.68;99569.00;4934664;29;20070;-74
2022/02/05 09:24:25;;;;;;;1.17;0.88;;;;;;;9.08;53.43;99557.44;4934337;29;20063;-74
2022/02/05 09:26:58;;;;;;;1.10;0.90;;;;;;;12.37;45.41;99538.16;4934206;29;20051;-74
2022/02/05 09:29:23;;;;;;;1.48;0.93;;;;;;;12.50;43.84;99537.13;4934324;29;20027;-74
2022/02/05 09:31:51;;;;;;;0.63;0.63;;;;;;;10.20;48.55;99546.03;4932866;29;20495;-74
2022/02/05 09:34:17;;;;;;;0.50;0.50;;;;;;;9.89;50.61;99544.41;4923238;29;20044;-74
2022/02/05 09:36:43;;;;;;;0.60;0.50;;;;;;;11.62;45.06;99538.16;4933860;29;20354;-74
2022/02/05 09:39:10;;;;;;;0.50;0.50;;;;;;;13.05;43.56;99538.06;4934370;29;20091;-74
2022/02/05 09:41:38;;;;;;;0.77;0.77;;;;;;;13.50;41.00;99544.28;4934216;29;20485;-74
2022/02/05 09:44:04;;;;;;;3.50;1.33;;;;;;;11.70;44.63;99549.28;4934786;29;20031;-73
2022/02/05 09:46:30;;;;;;;3.65;1.02;;;;;;;9.70;47.96;99553.94;4937421;29;20473;-74
2022/02/05 09:48:55;;;;;;;3.53;1.15;;;;;;;8.32;53.12;99558.97;4937663;29;20038;-73
2022/02/05 09:51:30;;;;;;;0.45;0.45;;;;;;;10.04;49.56;99558.16;4937505;29;20027;-73
2022/02/05 09:53:57;;;;;;;0.40;0.40;;;;;;;11.70;44.72;99544.09;4937556;29;20032;-74
2022/02/05 09:56:25;;;;;;;5.15;2.00;;;;;;;13.31;42.10;99540.28;4937203;29;20027;-75
2022/02/05 09:58:52;;;;;;;0.50;0.50;;;;;;;14.83;39.39;99535.53;4937481;29;20032;-74
2022/02/05 10:01:21;;;;;;;0.43;0.43;;;;;;;15.70;36.45;99536.00;4937405;29;20063;-75
2022/02/05 10:03:49;;;;;;;0.30;0.30;;;;;;;16.27;35.73;99537.06;4928007;29;20138;-74
2022/02/05 10:06:28;;;;;;;0.85;0.47;;;;;;;12.52;41.03;99547.50;4933200;29;20028;-74
2022/02/05 10:09:20;;;;;;;0.47;0.47;;;;;;;14.70;37.73;99534.09;4937355;29;20514;-74
2022/02/05 10:11:45;;;;;;;9.63;2.08;;;;;;;16.16;36.21;99540.00;4936972;29;20098;-74
2022/02/05 10:14:12;;;;;;;0.30;0.30;;;;;;;15.38;35.82;99548.13;4937067;29;20032;-75
2022/02/05 10:16:38;;;;;;;4.22;0.95;;;;;;;14.93;37.60;99551.84;4937007;29;20028;-75
2022/02/05 10:19:03;;;;;;;0.52;0.52;;;;;;;12.83;40.89;99558.34;4937139;29;20036;-75
2022/02/05 10:21:30;;;;;;;0.50;0.50;;;;;;;10.03;46.56;99574.56;4937037;29;20035;-74
2022/02/05 10:24:08;;;;;;;0.30;0.30;;;;;;;11.14;44.73;99564.50;4936942;29;20111;-74
2022/02/05 10:26:40;;;;;;;0.55;0.55;;;;;;;11.17;43.75;99558.41;4936756;29;20485;-75
2022/02/05 10:29:17;;;;;;;0.52;0.52;;;;;;;11.65;42.94;99556.28;4936960;29;20672;-75
2022/02/05 10:32:13;;;;;;;0.65;0.65;;;;;;;12.80;41.84;99553.19;4936149;29;20102;-75
2022/02/05 10:35:15;;;;;;;6.60;2.40;;;;;;;14.42;38.71;99542.50;4928046;29;20043;-75
2022/02/05 10:37:43;;;;;;;1.95;0.75;;;;;;;17.17;33.68;99531.69;4936626;29;20496;-74
2022/02/05 10:40:12;;;;;;;0.20;0.20;;;;;;;16.53;33.77;99534.50;4936625;29;20036;-74
2022/02/05 10:43:05;;;;;;;1.50;0.52;;;;;;;12.96;40.20;99559.88;4936888;29;20049;-73
2022/02/05 10:45:39;;;;;;;0.30;0.30;;;;;;;10.48;43.39;99564.91;4936687;29;20031;-74
2022/02/05 10:48:05;;;;;;;1.85;1.42;;;;;;;9.09;48.58;99574.66;4936625;29;20020;-74
2022/02/05 10:50:33;;;;;;;0.50;0.50;;;;;;;8.96;49.71;99582.41;4936391;29;20366;-74
2022/02/05 10:53:18;;;;;;;0.43;0.43;;;;;;;8.17;52.26;99584.69;4936609;29;20063;-74
2022/02/05 11:06:56;;;;;;;0.70;0.70;;;;;;;7.15;54.04;99592.59;4898640;29;20036;-73
2022/02/05 11:09:24;;;;;;;0.50;0.50;;;;;;;7.37;54.94;99586.78;4898231;29;20084;-73
2022/02/05 11:20:08;;;;;;;0.45;0.45;;;;;;;8.25;52.06;99577.88;4898379;29;20054;-74
2022/02/05 11:22:36;;;;;;;0.65;0.65;;;;;;;8.80;51.93;99570.34;4898048;29;20028;-74
2022/02/05 11:25:04;;;;;;;0.40;0.40;;;;;;;12.65;40.65;99549.06;4897902;29;20390;-74
2022/02/05 11:27:30;;;;;;;1.80;0.77;;;;;;;15.57;36.02;99537.19;4897800;29;20080;-74
2022/02/05 11:29:55;;;;;;;0.93;0.93;;;;;;;10.71;42.83;99563.94;4897873;29;20040;-74
2022/02/05 11:32:32;;;;;;;0.35;0.35;;;;;;;9.52;46.68;99560.88;4903488;29;20034;-74
2022/02/05 11:35:06;;;;;;;2.00;1.00;;;;;;;9.88;46.91;99569.44;4927809;29;20027;-74
2022/02/05 11:37:51;;;;;;;0.70;0.70;;;;;;;11.82;41.83;99550.06;4935415;29;20035;-74
2022/02/05 11:40:39;;;;;;;2.70;0.60;;;;;;;10.44;44.38;99550.28;4935604;29;20054;-73
2022/02/05 11:43:31;;;;;;;0.60;0.60;;;;;;;12.29;40.99;99540.03;4935430;29;20027;-74
2022/02/05 11:46:14;;;;;;;0.80;0.80;;;;;;;15.31;36.09;99524.81;4933099;29;20111;-74
2022/02/05 11:48:53;;;;;;;3.33;0.40;;;;;;;15.59;34.39;99517.97;4935389;29;20055;-72
2022/02/05 11:51:57;;;;;;;0.30;0.30;;;;;;;16.09;33.04;99523.59;4935291;29;20167;-73
2022/02/05 11:54:23;;;;;;;5.47;0.57;;;;;;;14.95;34.69;99516.16;4934413;29;20077;-74
2022/02/05 11:57:05;;;;;;;0.32;0.32;;;;;;;11.85;38.34;99523.22;4934966;29;20614;-74
2022/02/05 11:59:57;;;;;;;0.30;0.30;;;;;;;9.66;43.03;99529.78;4935277;29;20198;-74
2022/02/05 12:02:23;;;;;;;0.50;0.50;;;;;;;11.96;39.92;99516.16;4928922;29;20044;-74
2022/02/05 12:05:14;;;;;;;1.40;1.30;;;;;;;14.45;35.26;99508.53;4927111;29;20050;-74
2022/02/05 12:08:01;;;;;;;2.40;1.02;;;;;;;16.39;32.03;99500.94;4934155;29;20492;-74
2022/02/05 12:10:40;;;;;;;4.32;1.95;;;;;;;15.91;33.38;99496.25;4935186;29;20023;-73
2022/02/05 12:13:15;;;;;;;0.70;0.65;;;;;;;16.36;33.89;99508.03;4934978;29;20110;-74
2022/02/05 12:15:44;;;;;;;0.30;0.30;;;;;;;16.05;32.65;99505.41;4934905;29;20104;-73
2022/02/05 12:20:57;;;;;;;1.48;0.63;;;;;;;15.67;32.83;99504.75;4935047;29;19914;-73
2022/02/05 12:25:58;;;;;;;0.28;0.28;;;;;;;15.57;33.52;99491.06;4934688;29;20028;-74
2022/02/05 12:28:29;;;;;;;0.20;0.20;;;;;;;15.85;33.00;99490.31;4934740;29;20054;-73
2022/02/05 12:31:00;;;;;;;0.63;0.63;;;;;;;16.33;32.27;99484.56;4934825;29;20036;-73
2022/02/05 12:33:43;;;;;;;0.55;0.55;;;;;;;16.52;32.92;99488.34;4928285;29;20075;-72
2022/02/05 12:36:09;;;;;;;0.30;0.30;;;;;;;15.94;32.11;99482.22;4929822;29;20028;-73
2022/02/05 12:38:38;;;;;;;0.40;0.40;;;;;;;13.42;36.81;99495.84;4934617;29;20039;-73
2022/02/05 12:41:07;;;;;;;0.38;0.38;;;;;;;12.41;38.27;99497.41;4934539;29;20028;-73
2022/02/05 12:43:51;;;;;;;0.95;0.68;;;;;;;11.52;40.93;99499.31;4934661;29;20182;-73
2022/02/05 12:46:16;;;;;;;0.40;0.40;;;;;;;10.60;44.33;99503.53;4934512;29;20381;-73
2022/02/05 12:48:46;;;;;;;0.68;0.50;;;;;;;10.24;42.52;99506.31;4934624;29;20019;-73
2022/02/05 12:51:11;;;;;;;;;;;;;;;10.01;43.87;99493.47;4935079;29;20098;-72
2022/02/05 12:53:39;;;;;;;0.32;0.32;;;;;;;10.30;44.53;99492.50;4934390;29;20340;-73
2022/02/05 12:56:17;;;;;;;0.40;0.40;;;;;;;10.38;44.02;99477.75;4934439;29;20047;-74
2022/02/05 12:59:03;;;;;;;0.50;0.50;;;;;;;10.11;42.58;99483.06;4934510;29;20378;-74
2022/02/05 13:01:33;;;;;;;0.65;0.65;;;;;;;9.33;43.74;99484.19;4934475;29;20494;-73
2022/02/05 13:04:10;;;;;;;0.40;0.40;;;;;;;8.68;46.78;99485.03;4923488;29;20071;-73
2022/02/05 13:06:37;;;;;;;3.40;0.80;;;;;;;8.44;46.23;99497.06;4932832;29;20485;-73
2022/02/05 13:09:02;;;;;;;3.40;1.05;;;;;;;8.79;45.89;99483.31;4934304;29;20086;-73
2022/02/05 13:11:30;;;;;;;0.40;0.40;;;;;;;9.32;45.32;99484.16;4934216;29;20122;-67
2022/02/05 13:13:56;;;;;;;0.70;0.70;;;;;;;9.00;45.34;99487.66;4934076;29;20508;-72
2022/02/05 13:16:23;;;;;;;0.40;0.40;;;;;;;9.42;45.07;99480.69;4933899;29;20028;-72
2022/02/05 13:19:17;;;;;;;0.40;0.40;;;;;;;9.68;44.99;99484.09;4934695;29;20028;-72
2022/02/05 13:25:36;;;;;;;0.40;0.40;;;;;;;8.92;46.99;99472.13;4937769;29;20079;-72
2022/02/05 13:28:03;;;;;;;0.40;0.40;;;;;;;9.73;44.01;99460.78;4937403;29;20035;-73
2022/02/05 13:36:30;;;;;;;0.65;0.47;;;;;;;10.60;42.86;99452.56;4924859;29;20501;-73
2022/02/05 13:39:12;;;;;;;0.50;0.50;;;;;;;10.16;42.91;99461.47;4923872;29;20087;-73
2022/02/05 13:41:57;;;;;;;0.40;0.40;;;;;;;9.91;44.14;99462.41;4918441;29;20115;-73
2022/02/05 13:44:25;;;;;;;0.50;0.50;;;;;;;9.91;43.39;99460.72;4918725;29;20103;-73
2022/02/05 13:47:11;;;;;;;0.30;0.30;;;;;;;9.95;44.03;99459.81;4918338;29;20024;-73
2022/02/05 13:49:37;;;;;;;0.50;0.40;;;;;;;10.32;43.13;99446.72;4918412;29;20063;-73
2022/02/05 13:52:06;;;;;;;0.30;0.30;;;;;;;9.81;44.16;99461.59;4918124;29;20043;-73
2022/02/05 13:54:33;;;;;;;5.53;0.60;;;;;;;10.13;43.78;99458.00;4918477;29;20087;-73
2022/02/05 13:57:00;;;;;;;0.40;0.40;;;;;;;10.01;44.47;99464.97;4917463;29;20379;-76
2022/02/05 13:59:25;;;;;;;0.93;0.93;;;;;;;9.29;45.41;99469.53;4926574;29;20035;-76
2022/02/05 14:01:50;;;;;;;0.40;0.40;;;;;;;9.49;45.51;99465.16;4935347;29;20036;-76
2022/02/05 14:04:24;;;;;;;0.40;0.40;;;;;;;9.31;45.90;99465.19;4925663;29;20020;-76
2022/02/05 14:06:54;;;;;;;0.60;0.60;;;;;;;9.34;47.15;99472.09;4899117;29;20027;-76
2022/02/05 14:09:26;;;;;;;0.40;0.40;;;;;;;9.28;45.76;99467.78;4899319;29;20478;-76
2022/02/05 14:11:52;;;;;;;0.40;0.40;;;;;;;9.06;46.96;99463.53;4899158;29;20455;-76
2022/02/05 14:14:27;;;;;;;0.40;0.40;;;;;;;8.65;48.04;99464.38;4899568;29;20044;-76
2022/02/05 14:16:52;;;;;;;0.30;0.30;;;;;;;8.83;46.87;99473.84;4899431;29;20021;-76
2022/02/05 14:19:25;;;;;;;0.70;0.70;;;;;;;8.84;47.47;99460.91;4899127;29;20028;-76
2022/02/05 14:21:52;;;;;;;0.40;0.40;;;;;;;9.37;48.31;99460.00;4899300;29;20434;-76
2022/02/05 14:24:26;;;;;;;0.45;0.45;;;;;;;9.00;47.51;99462.66;4899030;29;20029;-76
2022/02/05 14:27:03;;;;;;;0.43;0.43;;;;;;;8.67;49.23;99467.81;4898990;29;20076;-76
2022/02/05 14:29:39;;;;;;;0.40;0.40;;;;;;;8.28;48.69;99469.44;4926325;29;20036;-76
2022/02/05 14:32:20;;;;;;;0.47;0.47;;;;;;;7.91;49.18;99474.50;4933337;29;20028;-76
2022/02/05 14:35:02;;;;;;;0.60;0.60;;;;;;;7.70;50.43;99474.41;4917615;29;20071;-76
2022/02/05 14:40:43;;;;;;;0.50;0.50;;;;;;;7.51;51.72;99467.44;4924869;29;20052;-76
2022/02/05 14:43:08;;;;;;;0.40;0.40;;;;;;;7.47;52.20;99471.69;4917727;29;20417;-76
2022/02/05 14:45:34;;;;;;;0.73;0.73;;;;;;;7.60;51.44;99477.81;4917588;29;20020;-76
2022/02/05 14:48:00;;;;;;;0.40;0.40;;;;;;;7.48;51.46;99473.41;4917426;29;20109;-76
2022/02/05 14:50:25;;;;;;;0.57;0.57;;;;;;;7.34;52.77;99477.63;4917429;29;20401;-74
2022/02/05 14:52:50;;;;;;;0.60;0.60;;;;;;;7.35;52.05;99469.94;4917581;29;20024;-74
2022/02/05 14:55:16;;;;;;;0.80;0.65;;;;;;;7.35;52.94;99469.94;4917332;29;20067;-74
2022/02/05 14:57:41;;;;;;;1.13;0.90;;;;;;;7.35;52.80;99467.34;4917325;29;20075;-71
2022/02/05 15:00:07;;;;;;;0.68;0.68;;;;;;;7.36;53.63;99466.50;4917440;29;20035;-73
2022/02/05 15:02:32;;;;;;;0.55;0.55;;;;;;;7.62;52.51;99461.47;4919000;29;20459;-73
2022/02/05 15:04:58;;;;;;;2.25;0.73;;;;;;;7.74;51.05;99458.09;4927987;29;20035;-73
2022/02/05 15:07:24;;;;;;;0.73;0.73;;;;;;;7.86;50.42;99460.72;4936070;29;20024;-73
2022/02/05 15:09:49;;;;;;;3.58;1.02;;;;;;;7.94;50.40;99461.59;4930699;29;20103;-73
2022/02/05 15:12:14;;;;;;;0.50;0.50;;;;;;;7.92;49.63;99465.03;4932127;29;20115;-73
2022/02/05 15:14:40;;;;;;;0.60;0.60;;;;;;;8.07;49.34;99469.38;4935962;29;20031;-73
2022/02/05 15:17:05;;;;;;;0.50;0.50;;;;;;;8.08;50.11;99471.13;4935769;29;20020;-73
2022/02/05 15:19:31;;;;;;;0.70;0.65;;;;;;;8.07;49.08;99464.22;4935917;29;20103;-73
2022/02/05 15:21:56;;;;;;;0.57;0.57;;;;;;;7.98;49.43;99455.59;4935866;29;20115;-73
2022/02/05 15:24:22;;;;;;;0.68;0.50;;;;;;;7.97;48.98;99453.84;4935871;29;20031;-72
2022/02/05 15:26:47;;;;;;;0.40;0.40;;;;;;;7.85;48.65;99459.00;4935771;29;20035;-72
2022/02/05 15:29:12;;;;;;;0.40;0.40;;;;;;;7.87;49.41;99449.53;4935867;29;20028;-73
2022/02/05 15:31:40;;;;;;;0.50;0.50;;;;;;;7.75;48.49;99462.41;4935559;29;20479;-72
2022/02/05 15:34:07;;;;;;;1.80;1.25;;;;;;;7.71;48.79;99456.34;4924375;29;20038;-72
2022/02/05 15:44:10;;;;;;;0.75;0.75;;;;;;;7.05;49.88;99461.97;4935479;29;20046;-72
2022/02/05 15:46:36;;;;;;;0.50;0.50;;;;;;;6.94;50.58;99459.31;4935045;29;20023;-72
2022/02/05 15:49:02;;;;;;;0.47;0.47;;;;;;;6.85;51.38;99462.69;4935213;29;20043;-71
2022/02/05 15:51:30;;;;;;;0.40;0.40;;;;;;;6.76;51.22;99454.88;4935319;29;20027;-71
2022/02/05 15:54:01;;;;;;;0.38;0.38;;;;;;;6.64;52.21;99465.94;4935241;29;20028;-71
2022/02/05 15:56:36;;;;;;;0.40;0.40;;;;;;;6.52;51.55;99464.97;4935233;29;20028;-71
2022/02/05 15:59:04;;;;;;;0.68;0.68;;;;;;;6.41;53.17;99458.00;4935234;29;20027;-71
2022/02/05 16:01:30;;;;;;;1.95;0.70;;;;;;;6.37;53.55;99458.81;4935497;29;20024;-70
2022/02/05 16:03:55;;;;;;;1.85;1.60;;;;;;;6.31;53.74;99455.34;4924651;29;20493;-71
2022/02/05 16:06:20;;;;;;;0.80;0.80;;;;;;;6.22;53.79;99466.41;4931868;29;20031;-71
2022/02/05 16:08:46;;;;;;;0.50;0.50;;;;;;;6.20;54.69;99468.09;4933452;29;20028;-72
2022/02/05 16:11:12;;;;;;;0.50;0.50;;;;;;;6.16;54.19;99472.34;4927131;29;20075;-71
2022/02/05 16:13:37;;;;;;;12.90;0.60;;;;;;;6.11;55.03;99473.16;4934767;29;20031;-71
2022/02/05 16:16:03;;;;;;;0.85;0.85;;;;;;;5.99;53.95;99470.41;4935071;29;20031;-71
2022/02/05 16:18:28;;;;;;;0.50;0.50;;;;;;;5.99;55.30;99478.13;4934917;29;20370;-71
2022/02/05 16:20:54;;;;;;;15.73;3.88;;;;;;;5.97;56.24;99478.13;4935014;29;20082;-71
2022/02/05 16:23:19;;;;;;;1.13;1.13;;;;;;;5.78;55.77;99489.00;4934938;29;20540;-71
2022/02/05 16:25:45;;;;;;;0.60;0.60;;;;;;;5.66;56.32;99489.72;4934821;29;20042;-71
2022/02/05 16:28:10;;;;;;;0.63;0.63;;;;;;;5.71;56.88;99493.22;4934834;29;20397;-71
2022/02/05 16:30:40;;;;;;;0.93;0.93;;;;;;;5.59;56.55;99493.03;4935042;29;20091;-71
2022/02/05 16:33:11;;;;;;;0.88;0.88;;;;;;;5.61;56.44;99491.38;4928964;29;20396;-71
2022/02/05 16:35:44;;;;;;;1.00;0.93;;;;;;;5.52;57.25;99501.53;4926710;29;20067;-71
2022/02/05 16:38:17;;;;;;;0.50;0.50;;;;;;;5.48;57.11;99494.59;4934527;29;20038;-71
2022/02/05 16:40:42;;;;;;;2.90;0.98;;;;;;;5.41;57.04;99494.53;4926325;29;20023;-71
2022/02/05 16:43:07;;;;;;;0.47;0.47;;;;;;;5.44;57.64;99497.97;4934732;29;20038;-71
2022/02/05 16:45:38;;;;;;;1.65;1.15;;;;;;;5.35;58.53;99503.84;4934803;29;20019;-70
2022/02/05 16:48:05;;;;;;;0.55;0.55;;;;;;;5.29;57.76;99498.63;4934448;29;20500;-71
2022/02/05 16:50:31;;;;;;;0.73;0.73;;;;;;;5.18;57.63;99495.88;4934655;29;20034;-74
2022/02/05 16:53:01;;;;;;;0.55;0.55;;;;;;;5.12;58.93;99495.78;4935158;29;20032;-70
2022/02/05 16:55:27;;;;;;;1.77;1.63;;;;;;;5.03;59.16;99480.22;4938477;29;20030;-70
2022/02/05 16:57:52;;;;;;;0.93;0.93;;;;;;;4.97;60.50;99486.13;4938327;29;20031;-70
2022/02/05 17:00:18;;;;;;;0.47;0.47;;;;;;;4.96;58.49;99483.53;4938561;29;20035;-70
2022/02/05 17:02:44;;;;;;;0.80;0.80;;;;;;;5.05;57.90;99483.69;4932647;29;20473;-70
2022/02/05 17:05:09;;;;;;;0.80;0.80;;;;;;;5.14;56.60;99491.53;4930340;29;20042;-70
2022/02/05 17:07:35;;;;;;;2.28;1.00;;;;;;;5.18;57.84;99485.63;4938299;29;20027;-70
2022/02/05 17:10:00;;;;;;;2.92;1.13;;;;;;;5.16;57.97;99502.69;4931313;29;20148;-70
2022/02/05 17:12:25;;;;;;;1.55;1.45;;;;;;;5.10;58.57;99497.47;4935587;29;20389;-70
2022/02/05 17:14:53;;;;;;;1.40;1.40;;;;;;;5.09;58.61;99500.88;4938179;29;20417;-70
2022/02/05 17:17:20;;;;;;;1.70;1.60;;;;;;;5.04;59.41;99499.94;4937869;29;20482;-70
2022/02/05 17:19:52;;;;;;;5.57;2.70;;;;;;;5.00;59.71;99500.72;4938290;29;20030;-70
2022/02/05 17:22:19;;;;;;;6.75;3.15;;;;;;;4.81;59.75;99497.84;4938096;29;20034;-70
2022/02/05 17:24:45;;;;;;;0.50;0.50;;;;;;;4.81;60.49;99494.44;4938133;29;20404;-70
2022/02/05 17:27:10;;;;;;;0.90;0.90;;;;;;;4.85;60.08;99498.78;4937863;29;20036;-70
2022/02/05 17:29:36;;;;;;;1.40;1.08;;;;;;;4.86;60.30;99491.09;4938185;29;20030;-70
2022/02/05 17:32:04;;;;;;;0.93;0.93;;;;;;;4.92;60.08;99492.03;4934794;29;20032;-70
2022/02/05 17:34:33;;;;;;;0.70;0.70;;;;;;;4.99;60.69;99496.44;4927610;29;20043;-70
2022/02/05 17:36:58;;;;;;;2.65;2.50;;;;;;;4.73;61.10;99502.00;4937601;29;20489;-70
2022/02/05 17:39:24;;;;;;;0.98;0.98;;;;;;;4.66;61.85;99510.44;4935654;29;20122;-70
2022/02/05 17:41:50;;;;;;;0.80;0.80;;;;;;;4.73;62.04;99511.41;4930335;29;20034;-70
2022/02/05 17:44:15;;;;;;;0.93;0.93;;;;;;;4.51;62.50;99521.31;4937747;29;20110;-71
2022/02/05 17:46:44;;;;;;;0.77;0.77;;;;;;;4.45;62.57;99520.31;4937564;29;20422;-70
2022/02/05 17:49:09;;;;;;;1.42;1.33;;;;;;;4.34;64.06;99522.69;4937657;29;20115;-70
2022/02/05 17:51:34;;;;;;;0.93;0.93;;;;;;;4.26;63.90;99530.25;4937613;29;20461;-70
2022/02/05 17:54:00;;;;;;;1.48;1.38;;;;;;;4.26;64.15;99535.38;4937557;29;20444;-70
2022/02/05 17:56:26;;;;;;;1.20;1.08;;;;;;;4.16;63.93;99542.81;4937467;29;20032;-70
2022/02/05 17:58:51;;;;;;;1.65;1.30;;;;;;;4.15;65.83;99536.84;4937614;29;20028;-70
2022/02/05 18:01:17;;;;;;;2.40;1.67;;;;;;;4.06;66.25;99531.53;4937327;29;20043;-70
2022/02/05 18:03:43;;;;;;;1.27;1.27;;;;;;;3.99;67.06;99529.69;4928584;29;20027;-70
2022/02/05 18:06:13;;;;;;;0.60;0.60;;;;;;;4.02;67.57;99525.50;4931071;29;20472;-70
2022/02/05 18:08:53;;;;;;;2.63;1.73;;;;;;;3.92;65.43;99523.56;4935431;29;20532;-71
2022/02/05 18:11:21;;;;;;;;;;;;;;;3.91;66.62;99541.47;4929635;29;20031;-71
2022/02/05 18:16:15;;;;;;;2.33;1.73;;;;;;;4.19;66.41;99543.75;4936883;29;20083;-70
2022/02/05 18:18:41;;;;;;;2.28;0.90;;;;;;;4.41;65.78;99541.63;4937036;29;20437;-70
2022/02/05 18:21:06;;;;;;;0.90;0.90;;;;;;;4.47;63.87;99534.03;4937051;29;20027;-71
2022/02/05 18:23:31;;;;;;;0.70;0.70;;;;;;;4.58;65.58;99537.66;4936872;29;20473;-71
2022/02/05 18:25:57;;;;;;;23.95;1.30;;;;;;;4.71;62.94;99539.63;4936922;29;20098;-71
2022/02/05 18:28:22;;;;;;;0.93;0.93;;;;;;;4.83;63.28;99524.41;4936970;29;20050;-70
2022/02/05 18:30:48;;;;;;;1.10;0.82;;;;;;;5.00;61.45;99518.72;4936758;29;20114;-70
2022/02/05 18:33:14;;;;;;;1.10;1.10;;;;;;;5.03;61.55;99508.47;4930691;29;20063;-71
2022/02/05 18:35:39;;;;;;;0.47;0.47;;;;;;;5.08;60.69;99507.72;4928739;29;20032;-70
2022/02/05 18:38:06;;;;;;;0.82;0.82;;;;;;;5.19;60.83;99507.88;4936603;29;20027;-70
2022/02/05 18:40:33;;;;;;;0.50;0.50;;;;;;;5.11;59.89;99509.47;4926909;29;20103;-70
2022/02/05 18:42:58;;;;;;;0.90;0.90;;;;;;;5.12;60.91;99508.63;4936606;29;20034;-71
2022/02/05 18:45:26;;;;;;;1.85;1.08;;;;;;;5.16;60.51;99507.81;4936626;29;20018;-70
2022/02/05 18:47:51;;;;;;;0.70;0.70;;;;;;;5.18;60.44;99501.03;4936309;29;20099;-71
2022/02/05 18:50:17;;;;;;;0.80;0.80;;;;;;;5.15;60.41;99506.97;4936738;29;20064;-70
2022/02/05 18:52:42;;;;;;;0.70;0.70;;;;;;;5.12;60.74;99511.19;4936655;29;20601;-70
2022/02/05 18:55:08;;;;;;;0.65;0.65;;;;;;;5.12;61.31;99511.19;4936302;29;20110;-70
2022/02/05 18:57:37;;;;;;;0.80;0.80;;;;;;;5.15;61.09;99508.69;4936297;29;20036;-70
2022/02/05 19:00:07;;;;;;;0.65;0.65;;;;;;;5.16;61.02;99512.97;4936183;29;20118;-71
2022/02/05 19:02:49;;;;;;;0.80;0.80;;;;;;;5.12;61.69;99506.03;4930553;29;20059;-70
2022/02/05 19:18:31;;;;;;;1.13;1.05;;;;;;;4.66;62.25;99505.31;4917170;29;20087;-70
2022/02/05 19:20:57;;;;;;;1.65;1.17;;;;;;;4.59;62.54;99504.34;4917091;29;20028;-70
2022/02/05 19:23:26;;;;;;;0.68;0.68;;;;;;;4.62;62.98;99508.66;4917053;29;20028;-70
2022/02/05 19:25:54;;;;;;;0.60;0.60;;;;;;;4.53;63.46;99503.34;4917122;29;20023;-70
2022/02/05 19:28:21;;;;;;;0.82;0.82;;;;;;;4.52;63.17;99496.50;4916871;29;20370;-70
2022/02/05 19:30:46;;;;;;;1.75;1.23;;;;;;;4.57;63.30;99497.44;4916929;29;20028;-70
2022/02/05 19:33:13;;;;;;;1.10;1.10;;;;;;;4.52;63.27;99491.38;4923064;29;20023;-70
2022/02/05 19:35:39;;;;;;;0.80;0.80;;;;;;;4.47;63.62;99503.25;4927507;29;20036;-70
2022/02/05 19:38:06;;;;;;;0.73;0.73;;;;;;;4.47;63.69;99498.97;4935616;29;20119;-70
2022/02/05 19:40:34;;;;;;;0.52;0.52;;;;;;;4.48;63.57;99505.84;4925723;29;20032;-70
2022/02/05 19:43:01;;;;;;;1.10;1.10;;;;;;;4.45;64.11;99510.03;4935601;29;20054;-70
2022/02/05 19:45:27;;;;;;;1.70;1.58;;;;;;;4.42;64.43;99510.00;4935452;29;20020;-70
2022/02/05 19:47:57;;;;;;;0.65;0.65;;;;;;;4.31;64.71;99510.66;4935386;29;20034;-70
2022/02/05 19:50:22;;;;;;;0.80;0.80;;;;;;;4.34;64.40;99500.44;4935235;29;20508;-70
2022/02/05 19:52:48;;;;;;;0.88;0.88;;;;;;;4.46;65.17;99511.78;4935511;29;20040;-70
2022/02/05 19:55:14;;;;;;;1.45;1.45;;;;;;;4.44;65.47;99500.63;4935305;29;20031;-70
2022/02/05 19:57:40;;;;;;;0.60;0.60;;;;;;;4.43;64.52;99506.59;4935093;29;20481;-70
2022/02/05 20:00:07;;;;;;;0.65;0.65;;;;;;;4.37;64.63;99513.34;4935198;29;20043;-71
2022/02/05 20:02:34;;;;;;;0.70;0.70;;;;;;;4.34;64.75;99503.00;4927874;29;20119;-69
2022/02/05 20:05:13;;;;;;;0.70;0.70;;;;;;;4.33;65.53;99506.41;4927037;29;20034;-72
2022/02/05 20:10:09;;;;;;;0.65;0.65;;;;;;;4.22;65.60;99505.38;4919495;29;20393;-71
2022/02/05 20:12:34;;;;;;;0.75;0.75;;;;;;;4.23;65.60;99508.78;4915755;29;20076;-68
2022/02/05 20:15:00;;;;;;;1.38;1.27;;;;;;;4.20;65.53;99514.72;4981153;23;20468;-67
2022/02/05 20:17:28;;;;;;;0.77;0.77;;;;;;;4.24;66.03;99510.50;4938350;29;20075;-67
2022/02/05 20:19:54;;;;;;;1.52;1.08;;;;;;;4.21;65.85;99506.22;4934783;29;20031;-67
2022/02/05 20:22:21;;;;;;;1.05;1.02;;;;;;;4.14;66.06;99504.34;4933758;29;20127;-67
2022/02/05 20:24:51;;;;;;;1.02;1.02;;;;;;;4.04;66.49;99512.69;4922928;29;20476;-67